createdAt,value
2018-11-29T00:00:25.437Z,17.50
2018-11-29T00:02:53.883Z,18.20
2018-11-29T00:05:22.377Z,18.77
2018-11-29T00:07:50.825Z,19.43
2018-11-29T00:10:19.282Z,18.63
2018-11-29T00:12:47.807Z,19.60
2018-11-29T00:15:16.511Z,18.97
2018-11-29T00:17:44.972Z,19.30
2018-11-29T00:20:18.045Z,19.70
2018-11-29T00:22:47.258Z,20.43
2018-11-29T00:25:16.394Z,18.87
2018-11-29T00:27:45.056Z,18.57
2018-11-29T00:30:20.402Z,18.10
2018-11-29T00:32:49.019Z,18.87
2018-11-29T00:35:17.873Z,19.43
2018-11-29T00:37:46.425Z,17.40
2018-11-29T00:40:15.644Z,17.77
2018-11-29T00:42:44.053Z,19.00
2018-11-29T00:45:15.332Z,18.07
2018-11-29T00:47:44.168Z,16.50
2018-11-29T00:50:13.471Z,18.53
2018-11-29T00:52:42.708Z,18.73
2018-11-29T00:55:13.247Z,16.67
2018-11-29T00:57:41.674Z,17.70
2018-11-29T01:00:13.466Z,19.00
2018-11-29T01:02:41.862Z,18.03
2018-11-29T01:05:10.320Z,17.90
2018-11-29T01:07:38.896Z,16.97
2018-11-29T01:10:10.535Z,15.73
2018-11-29T01:12:38.993Z,15.67
2018-11-29T01:15:11.664Z,16.87
2018-11-29T01:17:40.166Z,17.50
2018-11-29T01:20:10.796Z,16.00
2018-11-29T01:22:39.192Z,15.33
2018-11-29T01:25:09.021Z,16.43
2018-11-29T01:27:37.522Z,17.37
2018-11-29T01:30:14.387Z,17.60
2018-11-29T01:32:42.859Z,16.97
2018-11-29T01:35:12.135Z,16.93
2018-11-29T01:37:40.563Z,17.27
2018-11-29T01:40:14.557Z,16.53
2018-11-29T01:42:43.588Z,17.33
2018-11-29T01:45:12.116Z,17.67
2018-11-29T01:47:40.585Z,17.67
2018-11-29T01:50:09.048Z,16.03
2018-11-29T01:52:37.992Z,16.80
2018-11-29T01:55:08.172Z,17.30
2018-11-29T01:57:36.589Z,18.27
2018-11-29T02:00:07.032Z,17.70
2018-11-29T02:02:35.480Z,17.07
2018-11-29T02:05:04.112Z,17.30
2018-11-29T02:07:32.522Z,18.77
2018-11-29T02:10:06.274Z,17.73
2018-11-29T02:12:34.708Z,18.87
2018-11-29T02:15:03.170Z,17.50
2018-11-29T02:17:31.595Z,16.20
2018-11-29T02:20:00.027Z,17.40
2018-11-29T02:22:28.413Z,15.33
2018-11-29T02:24:56.845Z,19.53
2018-11-29T02:27:25.291Z,16.37
2018-11-29T02:29:53.717Z,16.33
2018-11-29T02:32:22.151Z,17.57
2018-11-29T02:34:50.639Z,17.30
2018-11-29T02:37:19.089Z,17.90
2018-11-29T02:39:47.529Z,18.10
2018-11-29T02:42:15.981Z,16.87
2018-11-29T02:44:44.378Z,17.47
2018-11-29T02:47:12.791Z,17.30
2018-11-29T02:49:41.179Z,16.20
2018-11-29T02:52:09.637Z,16.70
2018-11-29T02:54:38.065Z,15.30
2018-11-29T02:57:06.513Z,16.87
2018-11-29T02:59:34.932Z,13.37
2018-11-29T03:02:03.401Z,15.20
2018-11-29T03:04:31.849Z,14.20
2018-11-29T03:07:00.317Z,14.63
2018-11-29T03:09:28.789Z,15.90
2018-11-29T03:11:57.181Z,15.30
2018-11-29T03:14:25.596Z,16.03
2018-11-29T03:16:54.052Z,16.90
2018-11-29T03:19:22.480Z,16.27
2018-11-29T03:21:50.900Z,15.90
2018-11-29T03:24:19.340Z,14.40
2018-11-29T03:26:47.784Z,15.00
2018-11-29T03:29:16.268Z,15.13
2018-11-29T03:31:44.715Z,15.07
2018-11-29T03:34:13.112Z,12.70
2018-11-29T03:36:41.546Z,14.57
2018-11-29T03:39:09.969Z,13.90
2018-11-29T03:41:38.450Z,12.80
2018-11-29T03:44:06.847Z,13.03
2018-11-29T03:46:35.256Z,13.60
2018-11-29T03:49:03.714Z,15.10
2018-11-29T03:51:32.116Z,15.03
2018-11-29T03:54:00.541Z,16.00
2018-11-29T03:56:28.930Z,17.50
2018-11-29T03:58:57.317Z,16.70
2018-11-29T04:01:25.741Z,17.43
2018-11-29T04:03:54.174Z,13.70
2018-11-29T04:06:22.621Z,12.40
2018-11-29T04:08:51.011Z,13.23
2018-11-29T04:11:19.513Z,12.53
2018-11-29T04:13:47.913Z,12.60
2018-11-29T04:16:16.390Z,12.47
2018-11-29T04:18:44.789Z,12.13
2018-11-29T04:21:13.226Z,11.30
2018-11-29T04:23:41.639Z,13.03
2018-11-29T04:26:10.090Z,13.03
2018-11-29T04:28:38.584Z,12.50
2018-11-29T04:31:07.002Z,12.20
2018-11-29T04:33:35.444Z,13.40
2018-11-29T04:36:03.830Z,14.50
2018-11-29T04:38:32.315Z,12.50
2018-11-29T04:41:00.754Z,13.27
2018-11-29T04:43:29.199Z,13.47
2018-11-29T04:46:08.819Z,11.40
2018-11-29T04:48:37.250Z,12.63
2018-11-29T04:51:05.684Z,12.10
2018-11-29T04:53:34.124Z,12.13
2018-11-29T04:56:02.640Z,11.60
2018-11-29T04:58:31.051Z,12.90
2018-11-29T05:00:59.489Z,12.70
2018-11-29T05:03:27.917Z,12.30
2018-11-29T05:05:56.651Z,13.27
2018-11-29T05:08:25.044Z,12.23
2018-11-29T05:10:53.728Z,13.73
2018-11-29T05:13:22.153Z,10.83
2018-11-29T05:15:50.559Z,12.03
2018-11-29T05:18:19.071Z,12.47
2018-11-29T05:20:47.752Z,12.50
2018-11-29T05:23:16.228Z,12.00
2018-11-29T05:25:44.646Z,13.10
2018-11-29T05:28:13.121Z,11.27
2018-11-29T05:30:41.594Z,10.53
2018-11-29T05:33:10.012Z,11.83
2018-11-29T05:35:38.706Z,11.30
2018-11-29T05:38:07.153Z,10.30
2018-11-29T05:40:35.675Z,10.53
2018-11-29T05:43:04.349Z,11.80
2018-11-29T05:45:32.752Z,10.90
2018-11-29T05:48:01.266Z,11.80
2018-11-29T05:50:29.713Z,12.00
2018-11-29T05:52:58.433Z,10.93
2018-11-29T05:55:26.847Z,11.87
2018-11-29T05:57:55.280Z,11.37
2018-11-29T06:00:23.736Z,11.53
2018-11-29T06:02:52.166Z,12.00
2018-11-29T06:05:20.607Z,11.83
2018-11-29T06:07:49.037Z,12.93
2018-11-29T06:10:18.948Z,12.70
2018-11-29T06:12:47.751Z,12.83
2018-11-29T06:15:16.605Z,11.60
2018-11-29T06:17:45.037Z,10.07
2018-11-29T06:20:16.573Z,10.53
2018-11-29T06:22:44.993Z,11.23
2018-11-29T06:25:13.491Z,10.90
2018-11-29T06:27:42.017Z,10.83
2018-11-29T06:30:17.807Z,11.40
2018-11-29T06:32:46.496Z,10.73
2018-11-29T06:35:14.957Z,11.63
2018-11-29T06:37:43.482Z,12.00
2018-11-29T06:40:13.882Z,9.60
2018-11-29T06:42:42.581Z,12.10
2018-11-29T06:45:15.798Z,10.40
2018-11-29T06:47:44.345Z,12.07
2018-11-29T06:50:13.529Z,11.37
2018-11-29T06:52:43.117Z,11.60
2018-11-29T06:55:14.253Z,10.40
2018-11-29T06:57:42.826Z,10.90
2018-11-29T07:00:14.631Z,12.40
2018-11-29T07:02:43.048Z,12.67
2018-11-29T07:05:11.660Z,12.83
2018-11-29T07:07:40.498Z,13.53
2018-11-29T07:10:10.402Z,11.47
2018-11-29T07:12:40.372Z,10.90
2018-11-29T07:15:12.145Z,10.90
2018-11-29T07:17:41.886Z,10.90
2018-11-29T07:20:15.107Z,12.77
2018-11-29T07:22:43.655Z,11.70
2018-11-29T07:25:12.199Z,11.00
2018-11-29T07:27:40.694Z,12.50
2018-11-29T07:30:12.001Z,11.23
2018-11-29T07:32:40.589Z,11.37
2018-11-29T07:35:10.168Z,13.23
2018-11-29T07:37:38.896Z,12.60
2018-11-29T07:40:11.930Z,11.33
2018-11-29T07:42:40.609Z,11.77
2018-11-29T07:45:17.621Z,12.00
2018-11-29T07:47:48.874Z,13.80
2018-11-29T07:50:19.491Z,13.10
2018-11-29T07:52:48.186Z,13.70
2018-11-29T07:55:18.688Z,12.50
2018-11-29T07:57:48.636Z,13.47
2018-11-29T08:00:17.419Z,13.20
2018-11-29T08:02:46.100Z,14.00
2018-11-29T08:05:15.466Z,11.67
2018-11-29T08:07:47.738Z,13.73
2018-11-29T08:10:16.032Z,13.20
2018-11-29T08:12:44.695Z,13.03
2018-11-29T08:15:14.499Z,14.27
2018-11-29T08:17:43.150Z,11.63
2018-11-29T08:20:16.032Z,11.40
2018-11-29T08:22:44.570Z,13.10
2018-11-29T08:25:13.155Z,13.17
2018-11-29T08:27:41.881Z,11.27
2018-11-29T08:30:13.771Z,12.70
2018-11-29T08:32:42.486Z,12.10
2018-11-29T08:35:13.197Z,12.50
2018-11-29T08:37:43.109Z,12.27
2018-11-29T08:40:15.109Z,12.70
2018-11-29T08:42:43.772Z,12.13
2018-11-29T08:45:12.482Z,13.37
2018-11-29T08:47:41.464Z,13.17
2018-11-29T08:50:11.274Z,13.70
2018-11-29T08:52:40.544Z,13.67
2018-11-29T08:55:10.584Z,12.23
2018-11-29T08:57:39.279Z,13.50
2018-11-29T09:00:12.061Z,13.10
2018-11-29T09:02:40.814Z,12.77
2018-11-29T09:05:10.601Z,11.90
2018-11-29T09:07:39.227Z,12.30
2018-11-29T09:10:10.661Z,11.87
2018-11-29T09:12:39.224Z,12.57
2018-11-29T09:15:12.304Z,12.27
2018-11-29T09:17:41.017Z,11.03
2018-11-29T09:20:17.714Z,11.20
2018-11-29T09:22:46.347Z,10.83
2018-11-29T09:25:15.885Z,13.20
2018-11-29T09:27:44.594Z,12.40
2018-11-29T09:30:17.278Z,10.77
2018-11-29T09:32:46.834Z,11.17
2018-11-29T09:35:15.490Z,11.57
2018-11-29T09:37:44.050Z,11.03
2018-11-29T09:40:15.623Z,11.30
2018-11-29T09:42:44.362Z,10.83
2018-11-29T09:45:23.349Z,10.20
2018-11-29T09:47:53.126Z,9.87
2018-11-29T09:50:22.055Z,9.20
2018-11-29T09:52:50.577Z,11.37
2018-11-29T09:55:19.157Z,9.50
2018-11-29T09:57:48.778Z,9.80
2018-11-29T10:00:27.531Z,9.63
2018-11-29T10:02:57.599Z,8.50
2018-11-29T10:05:26.378Z,8.57
2018-11-29T10:07:54.902Z,9.70
2018-11-29T10:10:23.541Z,9.97
2018-11-29T10:12:52.151Z,10.07
2018-11-29T10:15:20.804Z,9.73
2018-11-29T10:17:49.681Z,9.30
2018-11-29T10:20:18.281Z,9.33
2018-11-29T10:22:46.872Z,9.27
2018-11-29T10:25:15.799Z,8.67
2018-11-29T10:27:46.457Z,8.20
2018-11-29T10:30:29.296Z,8.93
2018-11-29T10:32:58.083Z,8.20
2018-11-29T10:35:26.717Z,8.60
2018-11-29T10:37:55.393Z,8.90
2018-11-29T10:40:24.070Z,8.07
2018-11-29T10:42:52.690Z,9.30
2018-11-29T10:45:21.414Z,8.20
2018-11-29T10:47:52.402Z,7.83
2018-11-29T10:50:20.345Z,7.83
2018-11-29T10:52:49.058Z,9.33
2018-11-29T10:55:19.376Z,8.37
2018-11-29T10:57:47.916Z,7.47
2018-11-29T11:00:26.829Z,7.70
2018-11-29T11:03:07.603Z,6.50
2018-11-29T11:05:36.763Z,7.30
2018-11-29T11:08:08.561Z,8.20
2018-11-29T11:10:35.305Z,7.97
2018-11-29T11:13:03.856Z,6.97
2018-11-29T11:15:32.425Z,7.03
2018-11-29T11:18:01.158Z,6.67
2018-11-29T11:20:29.716Z,6.70
2018-11-29T11:22:58.399Z,7.20
2018-11-29T11:25:26.952Z,7.63
2018-11-29T11:27:55.630Z,6.80
2018-11-29T11:30:24.252Z,7.47
2018-11-29T11:32:53.199Z,7.60
2018-11-29T11:35:21.815Z,7.17
2018-11-29T11:37:50.431Z,7.13
2018-11-29T11:40:19.050Z,6.63
2018-11-29T11:42:47.923Z,8.07
2018-11-29T11:45:19.521Z,7.20
2018-11-29T11:47:48.298Z,7.10
2018-11-29T11:50:21.110Z,7.60
2018-11-29T11:52:50.097Z,7.53
2018-11-29T11:55:19.434Z,7.33
2018-11-29T11:57:48.091Z,6.70
2018-11-29T12:00:19.859Z,6.80
2018-11-29T12:02:51.136Z,5.63
2018-11-29T12:05:20.172Z,5.60
2018-11-29T12:07:48.945Z,5.80
2018-11-29T12:10:17.488Z,6.47
2018-11-29T12:12:46.038Z,5.97
2018-11-29T12:15:15.369Z,6.00
2018-11-29T12:17:45.304Z,5.63
2018-11-29T12:20:18.851Z,5.80
2018-11-29T12:22:47.614Z,6.13
2018-11-29T12:25:21.116Z,5.63
2018-11-29T12:27:50.039Z,6.07
2018-11-29T12:30:24.811Z,5.70
2018-11-29T12:32:55.052Z,4.73
2018-11-29T12:35:23.614Z,4.37
2018-11-29T12:37:53.221Z,5.37
2018-11-29T12:40:20.773Z,5.83
2018-11-29T12:42:49.441Z,6.50
2018-11-29T12:45:18.073Z,5.90
2018-11-29T12:47:46.565Z,6.23
2018-11-29T12:50:20.246Z,4.83
2018-11-29T12:52:48.774Z,4.70
2018-11-29T12:55:18.428Z,6.80
2018-11-29T12:57:46.993Z,6.00
2018-11-29T13:00:17.599Z,5.23
2018-11-29T13:02:52.068Z,5.00
2018-11-29T13:05:20.656Z,5.87
2018-11-29T13:07:49.324Z,5.00
2018-11-29T13:10:19.124Z,4.63
2018-11-29T13:12:47.891Z,4.37
2018-11-29T13:15:19.090Z,5.80
2018-11-29T13:17:47.917Z,5.60
2018-11-29T13:20:17.452Z,4.63
2018-11-29T13:22:46.076Z,4.90
2018-11-29T13:25:16.646Z,5.10
2018-11-29T13:27:45.290Z,4.23
2018-11-29T13:30:15.269Z,4.53
2018-11-29T13:32:44.228Z,4.80
2018-11-29T13:35:21.022Z,5.10
2018-11-29T13:37:53.283Z,5.10
2018-11-29T13:40:21.897Z,3.63
2018-11-29T13:42:50.606Z,3.90
2018-11-29T13:45:19.350Z,3.93
2018-11-29T13:47:48.117Z,3.90
2018-11-29T13:50:17.748Z,3.77
2018-11-29T13:52:46.838Z,4.30
2018-11-29T13:55:16.317Z,4.93
2018-11-29T13:57:47.360Z,4.47
2018-11-29T14:00:19.360Z,3.77
2018-11-29T14:02:49.229Z,4.50
2018-11-29T14:05:17.874Z,4.37
2018-11-29T14:07:46.427Z,4.63
2018-11-29T14:10:17.480Z,4.20
2018-11-29T14:12:46.803Z,3.50
2018-11-29T14:15:17.441Z,3.30
2018-11-29T14:17:46.052Z,3.70
2018-11-29T14:20:14.957Z,3.97
2018-11-29T14:22:43.736Z,4.17
2018-11-29T14:25:13.331Z,4.23
2018-11-29T14:27:42.942Z,4.70
2018-11-29T14:30:13.895Z,4.90
2018-11-29T14:32:42.588Z,4.40
2018-11-29T14:35:11.163Z,4.77
2018-11-29T14:37:39.830Z,4.60
2018-11-29T14:40:11.614Z,5.20
2018-11-29T14:42:40.275Z,5.10
2018-11-29T14:45:10.475Z,5.47
2018-11-29T14:47:39.146Z,4.20
2018-11-29T14:50:14.747Z,3.93
2018-11-29T14:52:43.342Z,3.83
2018-11-29T14:55:12.862Z,4.13
2018-11-29T14:57:41.441Z,4.30
2018-11-29T15:00:12.264Z,4.90
2018-11-29T15:02:41.531Z,4.70
2018-11-29T15:05:19.752Z,4.17
2018-11-29T15:07:48.332Z,5.10
2018-11-29T15:10:16.996Z,5.10
2018-11-29T15:12:45.572Z,6.33
2018-11-29T15:15:15.174Z,6.23
2018-11-29T15:17:44.758Z,6.70
2018-11-29T15:20:18.017Z,8.03
2018-11-29T15:22:47.327Z,7.60
2018-11-29T15:25:15.223Z,7.27
2018-11-29T15:27:43.880Z,7.43
2018-11-29T15:30:16.614Z,7.33
2018-11-29T15:32:46.184Z,8.30
2018-11-29T15:35:14.762Z,7.40
2018-11-29T15:37:43.431Z,8.13
2018-11-29T15:40:14.367Z,6.80
2018-11-29T15:42:42.947Z,6.97
2018-11-29T15:45:14.910Z,5.20
2018-11-29T15:47:43.523Z,4.73
2018-11-29T15:50:14.057Z,4.80
2018-11-29T15:52:42.706Z,5.23
2018-11-29T15:55:17.070Z,4.50
2018-11-29T15:57:46.502Z,4.83
2018-11-29T16:00:20.283Z,4.00
2018-11-29T16:02:49.266Z,4.67
2018-11-29T16:05:17.947Z,4.70
2018-11-29T16:07:46.513Z,4.10
2018-11-29T16:10:16.333Z,3.77
2018-11-29T16:12:44.874Z,4.57
2018-11-29T16:15:14.376Z,4.20
2018-11-29T16:17:43.739Z,4.30
2018-11-29T16:20:19.787Z,4.60
2018-11-29T16:22:48.306Z,4.30
2018-11-29T16:25:16.849Z,4.90
2018-11-29T16:27:45.406Z,5.20
2018-11-29T16:30:47.768Z,4.60
2018-11-29T16:33:19.742Z,5.07
2018-11-29T16:35:48.291Z,5.30
2018-11-29T16:38:17.005Z,4.70
2018-11-29T16:40:45.638Z,4.07
2018-11-29T16:43:14.237Z,4.40
2018-11-29T16:45:42.861Z,4.33
2018-11-29T16:48:11.420Z,5.33
2018-11-29T16:50:40.027Z,5.43
2018-11-29T16:53:08.890Z,5.37
2018-11-29T16:55:38.128Z,5.10
2018-11-29T16:58:09.297Z,4.97
2018-11-29T17:00:37.970Z,5.23
2018-11-29T17:03:06.709Z,5.23
2018-11-29T17:05:35.469Z,6.07
2018-11-29T17:08:04.128Z,5.00
2018-11-29T17:10:32.792Z,5.70
2018-11-29T17:13:02.799Z,5.37
2018-11-29T17:15:32.315Z,5.73
2018-11-29T17:18:01.205Z,5.67
2018-11-29T17:20:29.795Z,5.20
2018-11-29T17:22:58.521Z,6.40
2018-11-29T17:25:27.120Z,6.00
2018-11-29T17:27:55.751Z,5.90
2018-11-29T17:30:25.297Z,5.93
2018-11-29T17:32:55.136Z,6.10
2018-11-29T17:35:23.827Z,5.30
2018-11-29T17:37:53.903Z,7.13
2018-11-29T17:40:22.833Z,6.63
2018-11-29T17:42:52.683Z,8.70
2018-11-29T17:45:23.512Z,7.00
2018-11-29T17:47:56.584Z,7.43
2018-11-29T17:50:26.791Z,7.70
2018-11-29T17:52:55.555Z,7.23
2018-11-29T17:55:24.351Z,6.60
2018-11-29T17:57:56.686Z,7.27
2018-11-29T18:00:29.080Z,7.63
2018-11-29T18:02:57.977Z,6.57
2018-11-29T18:05:28.132Z,7.70
2018-11-29T18:07:57.056Z,7.07
2018-11-29T18:10:28.028Z,7.83
2018-11-29T18:13:02.737Z,8.30
2018-11-29T18:15:33.308Z,6.40
2018-11-29T18:18:02.049Z,6.43
2018-11-29T18:20:30.852Z,7.10
2018-11-29T18:22:59.492Z,8.00
2018-11-29T18:25:28.364Z,6.63
2018-11-29T18:27:56.982Z,6.63
2018-11-29T18:30:25.616Z,6.97
2018-11-29T18:32:54.361Z,7.27
2018-11-29T18:35:23.092Z,7.03
2018-11-29T18:37:51.796Z,8.97
2018-11-29T18:40:21.266Z,7.00
2018-11-29T18:42:55.688Z,6.70
2018-11-29T18:45:24.481Z,7.00
2018-11-29T18:47:53.910Z,7.60
2018-11-29T18:50:24.581Z,7.43
2018-11-29T18:52:53.534Z,7.03
2018-11-29T18:55:23.316Z,6.67
2018-11-29T18:57:52.463Z,8.07
2018-11-29T19:00:24.428Z,7.50
2018-11-29T19:02:57.011Z,7.17
2018-11-29T19:05:21.932Z,9.63
2018-11-29T19:07:50.753Z,8.83
2018-11-29T19:10:25.439Z,7.57
2018-11-29T19:13:07.962Z,9.53
2018-11-29T19:15:36.652Z,9.47
2018-11-29T19:18:10.322Z,9.10
2018-11-29T19:20:35.259Z,8.93
2018-11-29T19:23:04.879Z,8.97
2018-11-29T19:25:33.852Z,8.93
2018-11-29T19:28:02.704Z,9.13
2018-11-29T19:30:32.191Z,9.30
2018-11-29T19:33:10.014Z,9.90
2018-11-29T19:35:38.834Z,9.93
2018-11-29T19:38:07.481Z,9.50
2018-11-29T19:40:36.366Z,9.83
2018-11-29T19:43:19.545Z,10.10
2018-11-29T19:45:48.215Z,8.63
2018-11-29T19:48:17.539Z,9.20
2018-11-29T19:50:46.670Z,9.80
2018-11-29T19:53:21.169Z,10.00
2018-11-29T19:55:51.944Z,9.13
2018-11-29T19:58:20.866Z,10.63
2018-11-29T20:00:49.979Z,10.23
2018-11-29T20:03:21.003Z,10.57
2018-11-29T20:05:49.850Z,10.80
2018-11-29T20:08:18.727Z,10.47
2018-11-29T20:10:47.591Z,9.50
2018-11-29T20:13:17.376Z,10.90
2018-11-29T20:15:50.974Z,10.03
2018-11-29T20:18:19.787Z,8.97
2018-11-29T20:20:50.378Z,10.50
2018-11-29T20:23:19.853Z,9.57
2018-11-29T20:25:48.770Z,10.00
2018-11-29T20:28:17.690Z,10.07
2018-11-29T20:30:46.798Z,10.33
2018-11-29T20:33:15.949Z,10.33
2018-11-29T20:35:45.216Z,8.67
2018-11-29T20:38:14.357Z,11.27
2018-11-29T20:40:45.398Z,11.40
2018-11-29T20:43:15.093Z,10.53
2018-11-29T20:45:49.261Z,10.27
2018-11-29T20:48:20.757Z,11.67
2018-11-29T20:50:50.097Z,10.03
2018-11-29T20:53:21.296Z,12.10
2018-11-29T20:55:50.214Z,11.53
2018-11-29T20:58:19.105Z,11.37
2018-11-29T21:00:48.037Z,10.17
2018-11-29T21:03:16.804Z,11.23
2018-11-29T21:05:45.684Z,11.60
2018-11-29T21:08:14.523Z,10.50
2018-11-29T21:10:44.147Z,10.50
2018-11-29T21:13:13.044Z,10.90
2018-11-29T21:15:43.160Z,11.30
2018-11-29T21:18:13.558Z,11.30
2018-11-29T21:20:43.333Z,9.73
2018-11-29T21:23:14.568Z,10.83
2018-11-29T21:25:43.852Z,9.20
2018-11-29T21:28:12.510Z,10.50
2018-11-29T21:30:41.278Z,9.87
2018-11-29T21:33:10.522Z,11.07
2018-11-29T21:35:39.255Z,11.80
2018-11-29T21:38:11.582Z,9.60
2018-11-29T21:40:40.753Z,9.23
2018-11-29T21:43:09.581Z,12.90
2018-11-29T21:45:38.272Z,12.60
2018-11-29T21:48:06.944Z,12.13
2018-11-29T21:50:35.559Z,12.13
2018-11-29T21:53:04.112Z,12.00
2018-11-29T21:55:33.123Z,12.83
2018-11-29T21:58:01.805Z,12.00
2018-11-29T22:00:30.526Z,12.50
2018-11-29T22:02:59.728Z,13.23
2018-11-29T22:05:28.361Z,12.60
2018-11-29T22:07:56.922Z,11.90
2018-11-29T22:10:25.488Z,12.90
2018-11-29T22:12:54.019Z,12.60
2018-11-29T22:15:22.608Z,11.60
2018-11-29T22:18:14.865Z,11.77
2018-11-29T22:20:43.421Z,12.63
2018-11-29T22:23:12.066Z,12.07
2018-11-29T22:25:41.248Z,12.67
2018-11-29T22:28:09.783Z,12.60
2018-11-29T22:30:38.362Z,12.13
2018-11-29T22:33:07.107Z,11.50
2018-11-29T22:35:35.675Z,13.03
2018-11-29T22:38:04.298Z,11.63
2018-11-29T22:40:32.937Z,12.77
2018-11-29T22:43:01.465Z,11.13
2018-11-29T22:45:30.044Z,11.50
2018-11-29T22:47:58.551Z,11.00
2018-11-29T22:50:27.114Z,11.47
2018-11-29T22:52:55.683Z,11.30
2018-11-29T22:55:24.270Z,10.20
2018-11-29T22:57:52.810Z,12.47
2018-11-29T23:00:21.406Z,11.80
2018-11-29T23:02:50.520Z,10.47
2018-11-29T23:05:19.153Z,10.83
2018-11-29T23:07:47.699Z,10.63
2018-11-29T23:10:16.370Z,10.03
2018-11-29T23:12:44.940Z,11.33
2018-11-29T23:15:13.535Z,11.17
2018-11-29T23:17:42.126Z,9.50
2018-11-29T23:20:12.556Z,11.43
2018-11-29T23:22:41.435Z,9.70
2018-11-29T23:25:12.177Z,10.97
2018-11-29T23:27:40.734Z,11.07
2018-11-29T23:30:12.542Z,10.60
2018-11-29T23:32:41.810Z,10.37
2018-11-29T23:35:10.624Z,9.50
2018-11-29T23:37:39.189Z,9.47
2018-11-29T23:40:14.033Z,9.60
2018-11-29T23:42:42.599Z,10.63
2018-11-29T23:45:12.186Z,9.00
2018-11-29T23:47:40.773Z,10.33
2018-11-29T23:50:13.735Z,11.60
2018-11-29T23:52:42.295Z,10.03
2018-11-29T23:55:19.557Z,9.13
2018-11-29T23:57:48.201Z,9.17
